< < Back
Terminal Aerodrome Forecast


Current Version              Previous Versions:   1  2  3  4  5  6  7  8  9  

Terminal Aerodrome Forecast

085
FTUS44 KBMX 032300
TAFANB
TAF
KANB 032338Z 0400/0424 06005KT 6SM BR OVC050
     FM040100 07002KT 6SM BR VCSH BKN025
     FM040400 12004KT 4SM BR OVC005
     FM041800 22010KT P6SM OVC015=

Latest METAR

998
SAUS70 KWBC 041100 RRD
MTRANB
METAR KANB 041053Z AUTO 24007KT 10SM OVC013 17/16 A3002 RMK AO2 SLP163
T01720156


USA.gov is the U.S. government's official web portal to all federal, state and local government web resources and services.